Time;durP1;ratioP1;P1;durP2;ratioP2;P2;SDS_P1;SDS_P2;PMS_P1;PMS_P2;Temp;Humidity;BMP_temperature;BMP_pressure;BME280_temperature;BME280_humidity;BME280_pressure;Samples;Min_cycle;Max_cycle;Signal;HPM_P1;HPM_P2
2023/08/13 00:01:20;;;;;;;12.88;3.92;;;16.50;99.90;;;;;;5093646;28;20115;-60
2023/08/13 00:03:46;;;;;;;11.63;4.43;;;16.40;99.90;;;;;;5076400;28;20047;-60
2023/08/13 00:06:12;;;;;;;16.63;4.20;;;16.40;99.90;;;;;;5094464;28;20206;-61
2023/08/13 00:08:37;;;;;;;13.35;4.93;;;16.40;99.90;;;;;;5075486;28;20509;-61
2023/08/13 00:11:13;;;;;;;15.02;3.85;;;16.40;99.90;;;;;;5094679;28;20036;-60
2023/08/13 00:13:39;;;;;;;13.20;4.10;;;16.40;99.90;;;;;;5059343;28;20036;-61
2023/08/13 00:16:06;;;;;;;14.80;3.90;;;16.40;99.90;;;;;;5075082;28;20051;-62
2023/08/13 00:18:32;;;;;;;22.73;4.40;;;16.40;99.90;;;;;;5076180;28;20039;-61
2023/08/13 00:20:59;;;;;;;15.27;4.32;;;16.40;99.90;;;;;;5059812;28;20503;-61
2023/08/13 00:23:25;;;;;;;10.77;3.50;;;16.40;99.90;;;;;;5075457;28;20090;-62
2023/08/13 00:25:51;;;;;;;15.20;4.18;;;16.40;99.90;;;;;;5059313;28;20530;-61
2023/08/13 00:28:16;;;;;;;15.77;3.70;;;16.40;99.90;;;;;;5075858;28;20044;-62
2023/08/13 00:30:42;;;;;;;13.95;4.18;;;16.40;99.90;;;;;;5093354;28;20044;-62
2023/08/13 00:33:08;;;;;;;14.82;4.38;;;16.40;99.90;;;;;;5094068;28;20101;-62
2023/08/13 00:35:33;;;;;;;11.32;3.63;;;16.40;99.90;;;;;;5075469;28;20048;-62
2023/08/13 00:37:59;;;;;;;12.13;4.00;;;16.40;99.90;;;;;;5075274;28;20040;-61
2023/08/13 00:40:25;;;;;;;12.02;4.43;;;16.40;99.90;;;;;;5093839;28;20668;-62
2023/08/13 00:42:50;;;;;;;13.85;4.03;;;16.30;99.90;;;;;;5075611;28;20448;-62
2023/08/13 00:45:16;;;;;;;12.25;3.92;;;16.40;99.90;;;;;;5093039;28;20092;-62
2023/08/13 00:47:43;;;;;;;11.95;4.03;;;16.30;99.90;;;;;;5075432;28;20044;-62
2023/08/13 00:50:09;;;;;;;15.55;3.80;;;16.30;99.90;;;;;;5074749;28;20046;-62
2023/08/13 00:52:35;;;;;;;11.70;4.30;;;16.20;99.90;;;;;;5075627;28;20066;-62
2023/08/13 00:55:02;;;;;;;14.70;4.30;;;16.20;99.90;;;;;;5075477;28;20489;-62
2023/08/13 00:57:28;;;;;;;11.70;4.00;;;16.20;99.90;;;;;;5092197;28;20047;-62
2023/08/13 00:59:54;;;;;;;10.40;3.38;;;16.10;99.90;;;;;;5093711;28;20028;-61
2023/08/13 01:02:21;;;;;;;10.25;3.70;;;16.10;99.90;;;;;;5075171;28;20507;-61
2023/08/13 01:04:46;;;;;;;11.93;4.20;;;16.10;99.90;;;;;;5092119;28;20051;-62
2023/08/13 01:07:24;;;;;;;12.43;4.55;;;16.10;99.90;;;;;;5058820;28;20113;-62
2023/08/13 01:10:13;;;;;;;11.35;4.00;;;16.00;99.90;;;;;;5075400;28;20040;-62
2023/08/13 01:12:48;;;;;;;9.90;3.55;;;16.00;99.90;;;;;;5092453;28;20048;-61
2023/08/13 01:15:23;;;;;;;14.90;4.45;;;16.00;99.90;;;;;;5074982;28;20454;-62
2023/08/13 01:17:52;;;;;;;12.70;3.90;;;16.00;99.90;;;;;;5058373;28;20051;-62
2023/08/13 01:20:18;;;;;;;14.80;4.00;;;16.00;99.90;;;;;;5073913;28;20621;-62
2023/08/13 01:22:49;;;;;;;14.32;4.22;;;16.00;99.90;;;;;;5058139;28;20092;-62
2023/08/13 01:25:16;;;;;;;14.57;4.35;;;16.00;99.90;;;;;;5074328;28;20052;-62
2023/08/13 01:27:49;;;;;;;16.60;4.72;;;16.00;99.90;;;;;;5074914;28;20492;-62
2023/08/13 01:30:38;;;;;;;12.30;4.22;;;16.00;99.90;;;;;;5074476;28;20047;-62
2023/08/13 01:33:07;;;;;;;12.98;4.18;;;16.00;99.90;;;;;;5092567;28;20048;-62
2023/08/13 01:35:34;;;;;;;11.77;3.72;;;16.00;99.90;;;;;;5092839;28;20036;-62
2023/08/13 01:38:01;;;;;;;11.77;4.47;;;16.00;99.90;;;;;;5093083;28;20032;-62
2023/08/13 01:40:27;;;;;;;13.60;4.00;;;16.00;99.90;;;;;;5073760;28;20039;-62
2023/08/13 01:42:53;;;;;;;12.55;4.30;;;16.10;99.90;;;;;;5092830;28;20028;-62
2023/08/13 01:45:19;;;;;;;13.98;4.30;;;16.10;99.90;;;;;;5074061;28;20504;-62
2023/08/13 01:47:46;;;;;;;15.68;4.18;;;16.10;99.90;;;;;;5073536;28;20052;-62
2023/08/13 01:50:12;;;;;;;12.90;4.75;;;16.10;99.90;;;;;;5092721;28;20040;-62
2023/08/13 01:52:38;;;;;;;11.55;3.78;;;16.10;99.90;;;;;;5074410;28;20043;-62
2023/08/13 01:55:05;;;;;;;9.48;3.20;;;16.10;99.90;;;;;;5073762;28;20048;-61
2023/08/13 01:57:31;;;;;;;15.02;4.50;;;16.10;99.90;;;;;;5092088;28;20024;-61
2023/08/13 01:59:57;;;;;;;13.75;4.53;;;16.20;99.90;;;;;;5074572;28;20101;-62
2023/08/13 02:02:23;;;;;;;15.23;4.57;;;16.20;99.90;;;;;;5073423;28;20032;-61
2023/08/13 02:04:49;;;;;;;17.13;4.30;;;16.20;99.90;;;;;;5092479;28;20036;-61
2023/08/13 02:07:14;;;;;;;11.88;4.45;;;16.20;99.90;;;;;;5092146;28;20044;-62
2023/08/13 02:09:40;;;;;;;13.38;3.97;;;16.30;99.90;;;;;;5073261;28;20048;-62
2023/08/13 02:12:06;;;;;;;17.95;4.82;;;16.30;99.90;;;;;;5091940;28;20040;-61
2023/08/13 02:14:32;;;;;;;15.30;4.15;;;16.30;99.90;;;;;;5090678;28;20036;-62
2023/08/13 02:16:59;;;;;;;14.15;4.53;;;16.30;99.90;;;;;;5074052;28;20043;-62
2023/08/13 02:19:25;;;;;;;14.70;4.60;;;16.40;99.90;;;;;;5074193;28;20374;-62
2023/08/13 02:21:50;;;;;;;21.08;5.13;;;16.40;99.90;;;;;;5073293;28;20071;-62
2023/08/13 02:24:16;;;;;;;11.90;4.00;;;16.40;99.90;;;;;;5057296;28;20076;-62
2023/08/13 02:26:42;;;;;;;12.60;3.58;;;16.40;99.90;;;;;;5092073;28;20036;-62
2023/08/13 02:29:08;;;;;;;11.48;3.58;;;16.40;99.90;;;;;;5073171;28;20473;-62
2023/08/13 02:31:33;;;;;;;10.25;3.90;;;16.40;99.90;;;;;;5092195;28;20038;-62
2023/08/13 02:33:59;;;;;;;9.45;3.75;;;16.40;99.90;;;;;;5074131;28;20067;-62
2023/08/13 02:36:25;;;;;;;12.07;3.65;;;16.40;99.90;;;;;;5056454;28;20093;-62
2023/08/13 02:38:50;;;;;;;11.30;3.80;;;16.30;99.90;;;;;;5057330;28;20073;-61
2023/08/13 02:41:16;;;;;;;10.63;3.78;;;16.40;99.90;;;;;;5091989;28;20385;-61
2023/08/13 02:43:51;;;;;;;14.15;3.80;;;16.30;99.90;;;;;;5073045;28;20040;-62
2023/08/13 02:46:17;;;;;;;14.70;4.68;;;16.30;99.90;;;;;;5073881;28;20043;-62
2023/08/13 02:48:43;;;;;;;9.88;3.50;;;16.30;99.90;;;;;;5070267;28;20052;-62
2023/08/13 02:51:08;;;;;;;11.55;5.15;;;16.30;99.90;;;;;;5070881;28;20429;-61
2023/08/13 02:53:34;;;;;;;13.88;4.70;;;16.20;99.90;;;;;;5070398;28;20048;-62
2023/08/13 02:56:00;;;;;;;12.75;3.67;;;16.20;99.90;;;;;;5070556;28;20045;-61
2023/08/13 02:58:25;;;;;;;13.48;4.28;;;16.20;99.90;;;;;;5071062;28;20094;-61
2023/08/13 03:00:51;;;;;;;10.25;3.80;;;16.10;99.90;;;;;;5071576;28;20037;-62
2023/08/13 03:03:17;;;;;;;12.10;3.75;;;16.10;99.90;;;;;;5070288;28;20111;-62
2023/08/13 03:05:42;;;;;;;13.30;4.57;;;16.10;99.90;;;;;;5069355;28;20075;-61
2023/08/13 03:08:08;;;;;;;13.13;4.13;;;16.10;99.90;;;;;;5053955;28;20055;-61
2023/08/13 03:10:34;;;;;;;9.75;3.78;;;16.10;99.90;;;;;;5053219;28;20041;-62
2023/08/13 03:12:59;;;;;;;12.65;4.63;;;16.10;99.90;;;;;;5069496;28;20045;-62
2023/08/13 03:15:25;;;;;;;11.93;3.75;;;16.10;99.90;;;;;;5069833;28;20051;-62
2023/08/13 03:17:50;;;;;;;11.95;4.13;;;16.10;99.90;;;;;;5069404;28;20086;-62
2023/08/13 03:20:16;;;;;;;10.57;3.92;;;16.10;99.90;;;;;;5070167;28;20094;-62
2023/08/13 03:22:42;;;;;;;10.98;4.70;;;16.10;99.90;;;;;;5070171;28;20036;-62
2023/08/13 03:25:08;;;;;;;10.00;4.40;;;16.10;99.90;;;;;;5052699;28;20082;-62
2023/08/13 03:27:34;;;;;;;15.00;4.00;;;16.20;99.90;;;;;;5072766;28;20087;-61
2023/08/13 03:29:59;;;;;;;14.85;5.20;;;16.20;99.90;;;;;;5073882;28;20068;-62
2023/08/13 03:32:25;;;;;;;11.52;3.95;;;16.20;99.90;;;;;;5072929;28;20052;-61
2023/08/13 03:34:51;;;;;;;11.50;3.80;;;16.20;99.90;;;;;;5073774;28;20037;-62
2023/08/13 03:37:16;;;;;;;10.93;4.18;;;16.20;99.90;;;;;;5075271;28;20079;-62
2023/08/13 03:39:42;;;;;;;14.77;4.70;;;16.20;99.90;;;;;;5073727;28;20043;-61
2023/08/13 03:42:07;;;;;;;13.55;4.28;;;16.10;99.90;;;;;;5073495;28;20071;-61
2023/08/13 03:44:33;;;;;;;13.48;4.38;;;16.20;99.90;;;;;;5073212;28;20048;-61
2023/08/13 03:46:59;;;;;;;11.43;3.80;;;16.20;99.90;;;;;;5074251;28;20036;-62
2023/08/13 03:49:25;;;;;;;11.98;3.83;;;16.20;99.90;;;;;;5073341;28;20056;-62
2023/08/13 03:51:51;;;;;;;13.07;4.03;;;16.20;99.90;;;;;;5073199;28;20041;-62
2023/08/13 03:54:17;;;;;;;17.30;5.88;;;16.20;99.90;;;;;;5055657;28;20032;-62
2023/08/13 03:56:43;;;;;;;12.57;4.70;;;16.20;99.90;;;;;;5074775;28;20041;-62
2023/08/13 03:59:09;;;;;;;12.90;4.28;;;16.30;99.90;;;;;;5073267;28;20044;-61
2023/08/13 04:01:34;;;;;;;15.85;4.53;;;16.30;99.90;;;;;;5072574;28;20036;-62
2023/08/13 04:04:01;;;;;;;12.65;4.82;;;16.30;99.90;;;;;;5073406;28;20550;-62
2023/08/13 04:06:26;;;;;;;11.27;4.20;;;16.30;99.90;;;;;;5074491;28;20039;-62
2023/08/13 04:08:52;;;;;;;11.60;4.22;;;16.30;99.90;;;;;;5073399;28;20080;-62
2023/08/13 04:11:18;;;;;;;12.93;4.13;;;16.30;99.90;;;;;;5073118;28;20094;-62
2023/08/13 04:13:44;;;;;;;10.05;4.50;;;16.40;99.90;;;;;;5072821;28;20044;-60
2023/08/13 04:16:10;;;;;;;12.65;4.50;;;16.30;99.90;;;;;;5072201;28;20047;-61
2023/08/13 04:18:35;;;;;;;12.85;4.60;;;16.30;99.90;;;;;;5073895;28;20478;-61
2023/08/13 04:21:01;;;;;;;19.17;4.40;;;16.40;99.90;;;;;;5060015;28;20025;-61
2023/08/13 04:23:27;;;;;;;13.88;4.30;;;16.40;99.90;;;;;;5057286;28;20102;-60
2023/08/13 04:25:52;;;;;;;13.65;5.18;;;16.40;99.90;;;;;;5062969;28;20040;-61
2023/08/13 04:28:18;;;;;;;16.23;4.45;;;16.50;99.90;;;;;;5071639;28;20159;-60
2023/08/13 04:30:43;;;;;;;13.00;4.18;;;16.40;99.90;;;;;;5073939;28;20040;-61
2023/08/13 04:33:09;;;;;;;13.82;5.00;;;16.50;99.90;;;;;;5068029;28;20047;-60
2023/08/13 04:35:35;;;;;;;10.23;3.97;;;16.50;99.90;;;;;;5071202;28;20037;-60
2023/08/13 04:38:00;;;;;;;13.45;4.40;;;16.60;99.90;;;;;;5072875;28;20537;-60
2023/08/13 04:40:26;;;;;;;18.05;4.40;;;16.50;99.90;;;;;;5072253;28;20393;-60
2023/08/13 04:42:52;;;;;;;12.57;4.53;;;16.60;99.90;;;;;;5071557;28;20081;-61
2023/08/13 04:45:17;;;;;;;19.48;4.70;;;16.60;99.90;;;;;;5072196;28;20036;-61
2023/08/13 04:47:43;;;;;;;18.15;4.82;;;16.60;99.90;;;;;;5074027;28;20071;-61
2023/08/13 04:50:10;;;;;;;14.23;4.22;;;16.70;99.90;;;;;;5074768;28;20453;-61
2023/08/13 04:52:36;;;;;;;14.02;4.60;;;16.70;99.90;;;;;;5075449;28;20055;-61
2023/08/13 04:55:02;;;;;;;10.90;4.07;;;16.70;99.90;;;;;;5075629;28;20047;-61
2023/08/13 04:57:27;;;;;;;15.10;5.20;;;16.80;99.90;;;;;;5074258;28;20054;-61
2023/08/13 04:59:53;;;;;;;9.85;4.10;;;16.80;99.90;;;;;;5075495;28;20036;-61
2023/08/13 05:02:19;;;;;;;16.42;4.95;;;16.80;99.90;;;;;;5075258;28;20400;-60
2023/08/13 05:04:44;;;;;;;10.20;4.45;;;16.80;99.90;;;;;;5092386;28;20377;-60
2023/08/13 05:07:10;;;;;;;10.82;4.35;;;16.90;99.90;;;;;;5093178;28;20036;-60
2023/08/13 05:09:36;;;;;;;10.90;4.40;;;16.90;99.90;;;;;;5058406;28;20120;-60
2023/08/13 05:12:02;;;;;;;12.02;5.03;;;16.90;99.90;;;;;;5074550;28;20039;-60
2023/08/13 05:14:27;;;;;;;11.45;4.65;;;17.00;99.90;;;;;;5074907;28;20139;-60
2023/08/13 05:16:56;;;;;;;12.93;4.28;;;17.00;99.90;;;;;;5075330;28;20473;-61
2023/08/13 05:19:22;;;;;;;14.85;4.50;;;17.00;99.90;;;;;;5091984;28;20393;-61
2023/08/13 05:21:47;;;;;;;14.25;4.40;;;17.00;99.90;;;;;;5074969;28;20055;-61
2023/08/13 05:24:13;;;;;;;12.02;4.35;;;17.00;99.90;;;;;;5093048;28;20044;-61
2023/08/13 05:26:39;;;;;;;8.90;4.00;;;17.00;99.90;;;;;;5092175;28;20036;-60
2023/08/13 05:29:04;;;;;;;12.43;4.75;;;17.00;99.90;;;;;;5074538;28;20036;-61
2023/08/13 05:31:30;;;;;;;12.30;4.25;;;17.00;99.90;;;;;;5091921;28;20028;-61
2023/08/13 05:33:59;;;;;;;13.48;4.78;;;17.00;99.90;;;;;;5093127;28;20036;-61
2023/08/13 05:36:25;;;;;;;15.02;3.85;;;17.00;99.90;;;;;;5074556;28;20453;-61
2023/08/13 05:38:51;;;;;;;10.20;3.65;;;17.10;99.90;;;;;;5073847;28;20115;-61
2023/08/13 05:41:16;;;;;;;9.60;4.05;;;17.00;99.90;;;;;;5058190;28;20032;-61
2023/08/13 05:43:42;;;;;;;8.10;3.80;;;17.00;99.90;;;;;;5092423;28;20028;-61
2023/08/13 05:46:08;;;;;;;12.20;3.83;;;17.00;99.90;;;;;;5073967;28;20434;-61
2023/08/13 05:48:34;;;;;;;10.80;3.85;;;17.00;99.90;;;;;;5074134;28;20189;-61
2023/08/13 05:50:59;;;;;;;12.15;4.53;;;17.00;99.90;;;;;;5074472;28;20059;-61
2023/08/13 05:53:25;;;;;;;12.50;4.78;;;17.00;99.90;;;;;;5073636;28;20149;-61
2023/08/13 05:55:51;;;;;;;17.60;4.38;;;17.00;99.90;;;;;;5074357;28;20124;-61
2023/08/13 05:58:17;;;;;;;7.72;4.25;;;17.00;99.90;;;;;;5092231;28;20036;-61
2023/08/13 06:00:42;;;;;;;12.70;4.63;;;17.00;99.90;;;;;;5073515;28;20039;-61
2023/08/13 06:03:08;;;;;;;11.70;4.40;;;17.10;99.90;;;;;;5072781;28;20138;-61
2023/08/13 06:05:34;;;;;;;14.90;4.80;;;17.20;99.90;;;;;;5069097;28;20512;-61
2023/08/13 06:08:00;;;;;;;16.95;5.05;;;17.20;99.90;;;;;;5063813;28;20101;-61
2023/08/13 06:10:26;;;;;;;14.98;3.90;;;17.40;99.90;;;;;;5070396;28;20088;-61
2023/08/13 06:12:52;;;;;;;10.60;4.55;;;17.40;99.90;;;;;;5088212;28;20046;-61
2023/08/13 06:15:17;;;;;;;14.18;4.28;;;17.40;99.90;;;;;;5069062;28;20048;-61
2023/08/13 06:17:43;;;;;;;9.82;4.82;;;17.50;99.90;;;;;;5053866;28;20032;-61
2023/08/13 06:20:10;;;;;;;8.35;3.90;;;17.60;99.90;;;;;;5071327;28;20108;-61
2023/08/13 06:22:36;;;;;;;12.85;4.78;;;17.60;99.90;;;;;;5070613;28;20048;-61
2023/08/13 06:25:02;;;;;;;14.27;4.85;;;17.70;99.90;;;;;;5089240;28;20040;-61
2023/08/13 06:27:28;;;;;;;13.02;4.68;;;17.80;99.90;;;;;;5064559;28;20501;-61
2023/08/13 06:29:53;;;;;;;11.32;4.78;;;17.90;99.90;;;;;;5050646;28;20048;-61
2023/08/13 06:32:19;;;;;;;11.10;4.47;;;17.90;99.90;;;;;;5034700;28;20060;-61
2023/08/13 06:34:45;;;;;;;10.80;4.30;;;17.90;99.90;;;;;;5050161;28;20048;-61
2023/08/13 06:37:10;;;;;;;13.30;4.15;;;17.90;99.90;;;;;;5049212;28;20072;-61
2023/08/13 06:39:36;;;;;;;15.57;5.25;;;17.90;99.90;;;;;;5075446;28;20032;-61
2023/08/13 06:42:02;;;;;;;20.60;5.03;;;17.90;99.90;;;;;;5070483;28;20048;-60
2023/08/13 06:44:27;;;;;;;13.88;4.32;;;17.90;99.90;;;;;;5053607;28;20051;-60
2023/08/13 06:46:53;;;;;;;13.00;4.70;;;17.90;99.90;;;;;;5071299;28;20704;-61
2023/08/13 06:49:19;;;;;;;16.05;5.10;;;18.00;99.90;;;;;;5066615;28;20072;-61
2023/08/13 06:51:45;;;;;;;8.65;4.07;;;18.00;99.90;;;;;;5067412;28;20040;-61
2023/08/13 06:54:10;;;;;;;12.57;5.00;;;18.10;99.90;;;;;;5067604;28;20033;-60
2023/08/13 06:56:36;;;;;;;12.05;4.43;;;18.30;99.90;;;;;;5068157;28;20094;-61
2023/08/13 06:59:02;;;;;;;11.07;4.18;;;18.40;99.90;;;;;;5068459;28;20168;-60
2023/08/13 07:01:29;;;;;;;16.77;5.10;;;18.50;99.90;;;;;;5068226;28;20159;-61
2023/08/13 07:03:56;;;;;;;10.98;4.30;;;18.50;99.90;;;;;;5071553;28;20040;-61
2023/08/13 07:06:22;;;;;;;12.63;4.57;;;18.50;99.90;;;;;;5071221;28;20044;-60
2023/08/13 07:08:48;;;;;;;15.50;5.22;;;18.50;99.90;;;;;;5072723;28;20413;-60
2023/08/13 07:11:14;;;;;;;13.02;5.00;;;18.50;99.90;;;;;;5065988;28;20045;-60
2023/08/13 07:13:39;;;;;;;14.18;4.85;;;18.50;99.90;;;;;;5051693;28;20125;-60
2023/08/13 07:16:09;;;;;;;14.98;4.53;;;18.40;99.90;;;;;;5069941;28;20041;-60
2023/08/13 07:18:36;;;;;;;14.57;4.60;;;18.40;99.90;;;;;;5070065;28;20044;-61
2023/08/13 07:21:04;;;;;;;12.23;4.95;;;18.30;99.90;;;;;;5070556;28;20127;-60
2023/08/13 07:23:29;;;;;;;12.88;5.53;;;18.30;99.90;;;;;;5052972;28;20651;-61
2023/08/13 07:25:55;;;;;;;12.00;5.53;;;18.30;99.90;;;;;;5071200;28;20124;-61
2023/08/13 07:28:21;;;;;;;12.52;4.97;;;18.40;99.90;;;;;;5069936;28;20044;-60
2023/08/13 07:30:47;;;;;;;12.45;5.22;;;18.40;99.90;;;;;;5071444;28;20044;-60
2023/08/13 07:33:13;;;;;;;12.45;5.82;;;18.40;99.90;;;;;;5069464;28;20498;-60
2023/08/13 07:35:39;;;;;;;11.75;5.13;;;18.60;99.90;;;;;;5070072;28;20044;-61
2023/08/13 07:38:05;;;;;;;13.73;5.45;;;18.70;99.90;;;;;;5068262;28;20036;-61
2023/08/13 07:40:31;;;;;;;11.18;5.95;;;18.80;99.90;;;;;;5069543;28;20041;-60
2023/08/13 07:43:00;;;;;;;14.20;5.70;;;19.00;99.90;;;;;;5053435;28;20101;-61
2023/08/13 07:45:29;;;;;;;13.02;4.63;;;19.10;99.90;;;;;;5069213;28;20044;-61
2023/08/13 07:47:56;;;;;;;9.95;4.85;;;19.20;99.90;;;;;;5072462;28;20059;-61
2023/08/13 07:50:22;;;;;;;10.18;4.53;;;19.20;99.90;;;;;;5073034;28;20058;-61
2023/08/13 07:52:50;;;;;;;11.85;4.10;;;19.30;99.90;;;;;;5066889;28;20040;-61
2023/08/13 07:55:15;;;;;;;11.35;3.80;;;19.30;99.90;;;;;;5090935;28;20048;-61
2023/08/13 07:57:42;;;;;;;12.20;3.92;;;19.30;99.90;;;;;;5091593;28;20443;-60
2023/08/13 08:00:10;;;;;;;11.23;4.57;;;19.30;99.90;;;;;;5055614;28;20040;-61
2023/08/13 08:02:36;;;;;;;14.13;4.15;;;19.30;99.90;;;;;;5090785;28;20051;-60
2023/08/13 08:05:02;;;;;;;11.73;3.42;;;19.30;99.90;;;;;;5073298;28;20135;-61
2023/08/13 08:07:28;;;;;;;10.73;3.70;;;19.30;99.90;;;;;;5053751;28;20059;-63
2023/08/13 08:09:54;;;;;;;9.82;3.47;;;19.30;99.90;;;;;;5054937;28;20051;-61
2023/08/13 08:12:19;;;;;;;11.02;3.70;;;19.30;99.90;;;;;;5070011;28;20074;-61
2023/08/13 08:14:45;;;;;;;12.00;3.90;;;19.20;99.90;;;;;;5054888;28;20105;-61
2023/08/13 08:17:11;;;;;;;8.73;3.13;;;19.30;99.90;;;;;;5090610;28;20032;-61
2023/08/13 08:19:37;;;;;;;10.20;3.28;;;19.40;99.90;;;;;;5091237;28;20081;-61
2023/08/13 08:22:03;;;;;;;8.20;3.38;;;19.50;99.90;;;;;;5072244;28;20047;-60
2023/08/13 08:24:29;;;;;;;9.00;3.85;;;19.70;99.90;;;;;;5090958;28;20036;-61
2023/08/13 08:26:55;;;;;;;10.45;3.67;;;19.90;99.90;;;;;;5072702;28;20485;-61
2023/08/13 08:29:20;;;;;;;15.18;4.22;;;20.10;99.90;;;;;;5070405;28;20044;-61
2023/08/13 08:31:46;;;;;;;13.52;4.25;;;20.20;99.90;;;;;;5063898;28;20032;-61
2023/08/13 08:34:12;;;;;;;11.60;4.15;;;20.10;99.90;;;;;;5081182;28;20071;-61
2023/08/13 08:36:37;;;;;;;8.95;2.90;;;20.00;99.90;;;;;;5068772;28;20051;-61
2023/08/13 08:39:03;;;;;;;11.18;3.83;;;19.90;99.90;;;;;;5052513;28;20186;-61
2023/08/13 08:41:32;;;;;;;9.05;3.92;;;19.80;99.90;;;;;;5051604;28;20094;-61
2023/08/13 08:43:58;;;;;;;10.73;4.07;;;19.90;99.90;;;;;;5054425;28;20507;-61
2023/08/13 08:46:27;;;;;;;9.68;3.70;;;20.00;99.90;;;;;;5090483;28;20491;-60
2023/08/13 08:48:53;;;;;;;9.93;4.35;;;20.20;99.90;;;;;;5054566;28;20052;-61
2023/08/13 08:51:21;;;;;;;8.32;4.18;;;20.30;99.90;;;;;;5071079;28;20044;-61
2023/08/13 08:53:51;;;;;;;12.45;4.97;;;20.30;99.90;;;;;;5073193;28;20097;-60
2023/08/13 08:56:17;;;;;;;12.05;4.72;;;20.20;99.90;;;;;;5072170;28;20051;-60
2023/08/13 08:58:42;;;;;;;8.77;3.60;;;20.10;99.90;;;;;;5071098;28;20036;-61
2023/08/13 09:01:08;;;;;;;10.35;3.95;;;20.10;99.90;;;;;;5071353;28;20050;-60
2023/08/13 09:03:34;;;;;;;10.88;3.60;;;20.10;99.90;;;;;;5071051;28;20036;-60
2023/08/13 09:06:00;;;;;;;10.15;3.58;;;20.10;99.90;;;;;;5072320;28;20051;-60
2023/08/13 09:08:25;;;;;;;9.35;3.17;;;20.10;99.90;;;;;;5055404;28;20124;-60
2023/08/13 09:10:51;;;;;;;8.80;3.22;;;20.10;99.90;;;;;;5071817;28;20050;-60
2023/08/13 09:13:17;;;;;;;7.50;3.00;;;20.20;99.90;;;;;;5072192;28;20382;-61
2023/08/13 09:15:49;;;;;;;10.95;3.63;;;20.30;99.90;;;;;;5071758;28;20044;-60
2023/08/13 09:18:16;;;;;;;12.18;3.45;;;20.50;99.90;;;;;;5063133;28;20496;-60
2023/08/13 09:20:44;;;;;;;10.45;3.13;;;20.60;99.90;;;;;;5071386;28;20068;-60
2023/08/13 09:23:10;;;;;;;9.20;2.88;;;20.70;99.90;;;;;;5050302;28;20106;-60
2023/08/13 09:25:36;;;;;;;8.70;2.80;;;20.80;99.90;;;;;;5088925;28;20119;-60
2023/08/13 09:28:02;;;;;;;8.85;3.00;;;20.80;99.90;;;;;;5051539;28;20037;-60
2023/08/13 09:30:31;;;;;;;7.13;2.85;;;20.90;99.90;;;;;;5080352;28;20052;-60
2023/08/13 09:32:58;;;;;;;12.23;3.38;;;21.00;99.90;;;;;;5089298;28;20111;-59
2023/08/13 09:35:25;;;;;;;7.95;2.60;;;21.00;99.90;;;;;;5076841;28;20114;-60
2023/08/13 09:37:52;;;;;;;11.18;3.47;;;21.10;99.90;;;;;;5068109;28;20044;-60
2023/08/13 09:40:17;;;;;;;13.55;4.28;;;21.20;99.90;;;;;;5071412;28;20044;-60
2023/08/13 09:42:45;;;;;;;7.90;3.28;;;21.20;99.90;;;;;;5050567;28;20035;-60
2023/08/13 09:45:13;;;;;;;7.95;3.25;;;21.10;99.90;;;;;;5070875;28;20097;-60
2023/08/13 09:47:43;;;;;;;7.25;2.75;;;21.10;99.90;;;;;;5087692;28;20048;-60
2023/08/13 09:50:12;;;;;;;7.47;3.10;;;21.00;99.90;;;;;;5079952;28;20043;-60
2023/08/13 09:52:40;;;;;;;10.85;3.40;;;21.10;99.90;;;;;;5065343;28;20509;-60
2023/08/13 09:55:11;;;;;;;11.70;3.50;;;21.20;99.90;;;;;;5054216;28;20136;-60
2023/08/13 09:57:38;;;;;;;8.57;3.03;;;21.20;99.90;;;;;;5078045;28;20032;-60
2023/08/13 10:00:09;;;;;;;6.30;2.20;;;21.30;99.90;;;;;;5066736;28;20054;-60
2023/08/13 10:02:35;;;;;;;6.20;2.45;;;21.20;99.90;;;;;;5054906;28;20040;-60
2023/08/13 10:05:05;;;;;;;9.02;2.85;;;21.10;99.90;;;;;;5071548;28;20052;-60
2023/08/13 10:07:49;;;;;;;9.30;2.78;;;21.00;99.90;;;;;;5069942;28;20044;-61
2023/08/13 10:10:16;;;;;;;8.65;3.28;;;20.90;99.90;;;;;;5049419;28;20044;-60
2023/08/13 10:12:42;;;;;;;12.75;4.18;;;20.70;99.90;;;;;;5060656;28;20040;-60
2023/08/13 10:15:08;;;;;;;8.73;3.13;;;20.60;99.90;;;;;;5053683;28;20707;-60
2023/08/13 10:17:34;;;;;;;9.02;3.15;;;20.60;99.90;;;;;;5070471;28;20614;-60
2023/08/13 10:20:00;;;;;;;10.38;2.97;;;20.70;99.90;;;;;;5057986;28;20024;-60
2023/08/13 10:22:35;;;;;;;9.82;3.53;;;20.70;99.90;;;;;;5054487;28;20036;-60
2023/08/13 10:25:01;;;;;;;7.93;2.97;;;20.70;99.90;;;;;;5071307;28;20128;-60
2023/08/13 10:27:28;;;;;;;12.07;3.72;;;20.60;99.90;;;;;;5088725;28;20080;-60
2023/08/13 10:30:11;;;;;;;8.95;3.53;;;20.50;99.90;;;;;;5089209;28;20416;-60
2023/08/13 10:32:46;;;;;;;8.18;3.83;;;20.50;99.90;;;;;;5054040;28;20461;-60
2023/08/13 10:35:25;;;;;;;10.77;3.70;;;20.40;99.90;;;;;;5052025;28;20044;-60
2023/08/13 10:37:55;;;;;;;5.90;2.70;;;20.50;99.90;;;;;;5071967;28;20047;-61
2023/08/13 10:40:21;;;;;;;8.63;3.25;;;20.40;99.90;;;;;;5075343;28;20137;-61
2023/08/13 10:42:49;;;;;;;10.23;3.85;;;20.40;99.90;;;;;;5057428;28;20499;-61
2023/08/13 10:45:17;;;;;;;9.02;3.20;;;20.40;99.90;;;;;;5055355;28;20044;-61
2023/08/13 10:47:46;;;;;;;13.93;4.07;;;20.40;99.90;;;;;;5072031;28;20480;-61
2023/08/13 10:50:30;;;;;;;9.02;3.45;;;20.30;99.90;;;;;;5074517;28;20053;-60
2023/08/13 10:53:22;;;;;;;7.82;2.38;;;20.40;99.90;;;;;;5074674;28;20040;-61
2023/08/13 10:55:52;;;;;;;8.93;2.97;;;20.60;99.90;;;;;;5089645;28;20101;-60
2023/08/13 10:58:26;;;;;;;7.90;3.10;;;20.70;99.90;;;;;;5059580;28;20048;-61
2023/08/13 11:00:56;;;;;;;6.10;2.72;;;20.80;99.90;;;;;;5093349;28;20032;-61
2023/08/13 11:03:25;;;;;;;10.18;3.00;;;20.90;99.90;;;;;;5092408;28;20376;-61
2023/08/13 11:05:52;;;;;;;7.80;2.60;;;20.90;99.90;;;;;;5074950;28;20039;-61
2023/08/13 11:08:20;;;;;;;9.38;3.10;;;20.90;99.90;;;;;;5074804;28;20058;-61
2023/08/13 11:10:47;;;;;;;8.05;3.20;;;20.90;99.90;;;;;;5091817;28;20123;-60
2023/08/13 11:13:13;;;;;;;10.75;2.97;;;20.80;99.90;;;;;;5074901;28;20103;-61
2023/08/13 11:15:41;;;;;;;8.68;3.95;;;20.60;99.90;;;;;;5073858;28;20040;-61
2023/08/13 11:18:07;;;;;;;9.13;2.88;;;20.50;99.90;;;;;;5074260;28;20368;-61
2023/08/13 11:20:33;;;;;;;8.57;3.13;;;20.40;99.90;;;;;;5075000;28;20035;-61
2023/08/13 11:23:03;;;;;;;9.18;2.97;;;20.30;99.90;;;;;;5057631;28;20450;-61
2023/08/13 11:25:28;;;;;;;6.88;2.97;;;20.10;99.90;;;;;;5084196;28;20043;-61
2023/08/13 11:27:54;;;;;;;8.73;3.15;;;20.00;99.90;;;;;;5093092;28;20039;-60
2023/08/13 11:30:20;;;;;;;10.05;3.58;;;19.90;99.90;;;;;;5090708;28;20040;-61
2023/08/13 11:32:46;;;;;;;8.23;3.67;;;19.80;99.90;;;;;;5063015;28;20487;-61
2023/08/13 11:35:11;;;;;;;9.23;4.82;;;19.70;99.90;;;;;;5074644;28;20078;-61
2023/08/13 11:37:38;;;;;;;6.30;3.13;;;19.60;99.90;;;;;;5071733;28;20040;-61
2023/08/13 11:40:11;;;;;;;6.80;3.00;;;19.40;99.90;;;;;;5074513;28;20089;-60
2023/08/13 11:42:58;;;;;;;14.32;3.42;;;19.30;99.90;;;;;;5071856;28;20029;-60
2023/08/13 11:45:25;;;;;;;5.70;2.75;;;19.30;99.90;;;;;;5053833;28;20040;-61
2023/08/13 11:47:52;;;;;;;8.48;3.10;;;19.30;99.90;;;;;;5054058;28;20051;-61
2023/08/13 11:50:23;;;;;;;7.63;3.65;;;19.30;99.90;;;;;;5054515;28;20118;-61
2023/08/13 11:53:21;;;;;;;7.13;3.10;;;19.40;99.90;;;;;;5061026;28;20051;-61
2023/08/13 11:55:48;;;;;;;8.63;3.80;;;19.50;99.90;;;;;;5019662;28;20094;-61
2023/08/13 11:58:18;;;;;;;12.15;4.90;;;19.60;99.90;;;;;;5061815;28;20044;-61
2023/08/13 12:00:47;;;;;;;10.15;4.30;;;19.70;99.90;;;;;;5092659;28;20055;-61
2023/08/13 12:03:21;;;;;;;11.73;4.22;;;19.90;99.90;;;;;;5073945;28;20063;-61
2023/08/13 12:05:50;;;;;;;8.20;3.85;;;20.20;99.90;;;;;;5073708;28;20047;-61
2023/08/13 12:08:16;;;;;;;11.15;4.38;;;20.50;99.90;;;;;;5073691;28;20044;-61
2023/08/13 12:10:42;;;;;;;9.05;4.32;;;20.70;99.90;;;;;;5074097;28;20114;-60
2023/08/13 12:13:08;;;;;;;9.27;4.28;;;20.80;99.90;;;;;;5058115;28;20063;-61
2023/08/13 12:15:33;;;;;;;8.73;4.47;;;20.90;99.90;;;;;;5075720;28;20036;-61
2023/08/13 12:18:00;;;;;;;7.38;4.25;;;21.00;99.90;;;;;;5076250;28;20054;-61
2023/08/13 12:20:27;;;;;;;8.20;3.63;;;21.10;99.90;;;;;;5075232;28;20112;-61
2023/08/13 12:22:53;;;;;;;6.78;3.50;;;21.20;99.90;;;;;;5076383;28;20050;-61
2023/08/13 12:25:19;;;;;;;8.50;4.18;;;21.20;99.90;;;;;;5075406;28;20071;-61
2023/08/13 12:27:47;;;;;;;7.20;3.15;;;21.30;99.90;;;;;;5074502;28;20068;-60
2023/08/13 12:30:12;;;;;;;9.35;3.55;;;21.20;99.90;;;;;;5075499;28;20524;-61
2023/08/13 12:32:38;;;;;;;7.38;2.83;;;21.20;99.90;;;;;;5076099;28;20044;-61
2023/08/13 12:35:04;;;;;;;7.85;3.00;;;21.20;99.90;;;;;;5075390;28;20032;-61
2023/08/13 12:37:30;;;;;;;9.27;2.75;;;21.30;99.90;;;;;;5075368;28;20039;-61
2023/08/13 12:39:56;;;;;;;7.75;3.40;;;21.30;99.90;;;;;;5094471;28;20123;-61